PWSweather.com
Personal Weather Stations
Station Observations
TMASSANO
Herbertsville, Brick, NJ 08724

HerbertsvilleBrick, NJ 08724

Lat: 40.098, Lon: -74.096

Elevation: 16

Station Type: WS 2800

High Low Average
Temperature 46.4°F8.0°C 30.8°F-0.7°C 36.4°F2.4°C
Dew Point 29.1°F-1.6°C 18.8°F-7.3°C 23.0°F-5.0°C
Winds 6.3 mph 10.1 kmh Calm Calm 1.0 mph SW1.6 kmh SW
Wind Gusts 6.3 mph10.1 kmh -- 1.0 mph1.6 kmh
Humidity 63% 50% 58%
Pressure 30.46 in1031.5 mb 30.26 in1024.7 mb -
Precipitation 0.00 in0.0 mm - -
Hour Temp Dew Point Humidity Winds Wind Gusts Pressure Precip Precip Rate Daily Precip Total
12:00 AM 34.7°F1.5°C 21.4°F-5.9°C 58% Calm Calm 1.6 mph2.6 kmh 30.46 in1031.5 mb 0.00 in0.0 mm 0.00 in/hr0.0 mm/hr 0.00 in0.0 mm
12:30 AM 34.0°F1.1°C 20.7°F-6.3°C 58% 1.1 mph NNW1.8 kmh NNW 1.1 mph1.8 kmh 30.46 in1031.5 mb 0.00 in0.0 mm 0.00 in/hr0.0 mm/hr 0.00 in0.0 mm
01:00 AM 33.8°F1.0°C 20.5°F-6.4°C 58% 1.1 mph NNW1.8 kmh NNW 1.1 mph1.8 kmh 30.45 in1031.2 mb 0.00 in0.0 mm 0.00 in/hr0.0 mm/hr 0.00 in0.0 mm
01:30 AM 32.9°F0.5°C 19.4°F-7.0°C 57% Calm Calm -- 30.45 in1031.2 mb 0.00 in0.0 mm 0.00 in/hr0.0 mm/hr 0.00 in0.0 mm
02:00 AM 32.4°F0.2°C 19.3°F-7.1°C 58% 0.4 mph NNW0.6 kmh NNW 0.4 mph0.6 kmh 30.45 in1031.2 mb 0.00 in0.0 mm 0.00 in/hr0.0 mm/hr 0.00 in0.0 mm
02:30 AM 31.5°F-0.3°C 18.8°F-7.3°C 59% Calm Calm -- 30.45 in1031.2 mb 0.00 in0.0 mm 0.00 in/hr0.0 mm/hr 0.00 in0.0 mm
03:00 AM 31.0°F-0.6°C 19.1°F-7.2°C 61% Calm Calm -- 30.45 in1031.2 mb 0.00 in0.0 mm 0.00 in/hr0.0 mm/hr 0.00 in0.0 mm
03:30 AM 30.8°F-0.7°C 19.3°F-7.1°C 62% Calm Calm -- 30.45 in1031.2 mb 0.00 in0.0 mm 0.00 in/hr0.0 mm/hr 0.00 in0.0 mm
04:00 AM 31.1°F-0.5°C 19.3°F-7.1°C 61% 0.4 mph NNW0.6 kmh NNW 0.4 mph0.6 kmh 30.45 in1031.2 mb 0.00 in0.0 mm 0.00 in/hr0.0 mm/hr 0.00 in0.0 mm
04:30 AM 31.1°F-0.5°C 19.3°F-7.1°C 61% 1.1 mph W1.8 kmh W 1.1 mph1.8 kmh 30.45 in1031.2 mb 0.00 in0.0 mm 0.00 in/hr0.0 mm/hr 0.00 in0.0 mm
05:00 AM 31.1°F-0.5°C 19.3°F-7.1°C 61% 0.4 mph NNW0.6 kmh NNW 0.4 mph0.6 kmh 30.44 in1030.8 mb 0.00 in0.0 mm 0.00 in/hr0.0 mm/hr 0.00 in0.0 mm
05:30 AM 31.3°F-0.4°C 19.4°F-7.0°C 61% 0.7 mph NNW1.1 kmh NNW 0.7 mph1.1 kmh 30.45 in1031.2 mb 0.00 in0.0 mm 0.00 in/hr0.0 mm/hr 0.00 in0.0 mm
06:00 AM 31.3°F-0.4°C 19.4°F-7.0°C 61% 1.1 mph NNW1.8 kmh NNW 1.1 mph1.8 kmh 30.44 in1030.8 mb 0.00 in0.0 mm 0.00 in/hr0.0 mm/hr 0.00 in0.0 mm
06:30 AM 31.3°F-0.4°C 19.4°F-7.0°C 61% Calm Calm -- 30.45 in1031.2 mb 0.00 in0.0 mm 0.00 in/hr0.0 mm/hr 0.00 in0.0 mm
07:00 AM 31.7°F-0.2°C 19.8°F-6.8°C 61% 0.2 mph NNE0.3 kmh NNE 0.2 mph0.3 kmh 30.43 in1030.5 mb 0.00 in0.0 mm 0.00 in/hr0.0 mm/hr 0.00 in0.0 mm
07:30 AM 31.7°F-0.2°C 20.2°F-6.6°C 62% 0.4 mph NNW0.6 kmh NNW 0.4 mph0.6 kmh 30.44 in1030.8 mb 0.00 in0.0 mm 0.00 in/hr0.0 mm/hr 0.00 in0.0 mm
08:00 AM 31.5°F-0.3°C 20.0°F-6.7°C 62% 1.1 mph NW1.8 kmh NW 1.1 mph1.8 kmh 30.45 in1031.2 mb 0.00 in0.0 mm 0.00 in/hr0.0 mm/hr 0.00 in0.0 mm
08:30 AM 31.0°F-0.6°C 19.4°F-7.0°C 62% Calm Calm -- 30.45 in1031.2 mb 0.00 in0.0 mm 0.00 in/hr0.0 mm/hr 0.00 in0.0 mm
09:00 AM 31.1°F-0.5°C 19.6°F-6.9°C 62% Calm Calm -- 30.45 in1031.2 mb 0.00 in0.0 mm 0.00 in/hr0.0 mm/hr 0.00 in0.0 mm
09:30 AM 31.9°F-0.1°C 20.7°F-6.3°C 63% Calm Calm -- 30.46 in1031.5 mb 0.00 in0.0 mm 0.00 in/hr0.0 mm/hr 0.00 in0.0 mm
10:00 AM 32.8°F0.4°C 21.2°F-6.0°C 62% 0.4 mph 0.6 kmh 0.4 mph0.6 kmh 30.46 in1031.5 mb 0.00 in0.0 mm 0.00 in/hr0.0 mm/hr 0.00 in0.0 mm
10:30 AM 33.7°F0.9°C 21.6°F-5.8°C 61% 0.7 mph NNW1.1 kmh NNW 0.7 mph1.1 kmh 30.46 in1031.5 mb 0.00 in0.0 mm 0.00 in/hr0.0 mm/hr 0.00 in0.0 mm
11:00 AM 35.5°F1.9°C 23.4°F-4.8°C 61% 0.4 mph W0.6 kmh W 0.4 mph0.6 kmh 30.46 in1031.5 mb 0.00 in0.0 mm 0.00 in/hr0.0 mm/hr 0.00 in0.0 mm
11:30 AM 38.0°F3.3°C 25.3°F-3.7°C 60% 0.9 mph 1.4 kmh 0.9 mph1.4 kmh 30.45 in1031.2 mb 0.00 in0.0 mm 0.00 in/hr0.0 mm/hr 0.00 in0.0 mm
12:00 PM 40.0°F4.4°C 26.3°F-3.2°C 58% 1.1 mph NNW1.8 kmh NNW 1.1 mph1.8 kmh 30.44 in1030.8 mb 0.00 in0.0 mm 0.00 in/hr0.0 mm/hr 0.00 in0.0 mm
12:30 PM 40.7°F4.8°C 26.6°F-3.0°C 57% 3.4 mph ESE5.5 kmh ESE 3.4 mph5.5 kmh 30.41 in1029.8 mb 0.00 in0.0 mm 0.00 in/hr0.0 mm/hr 0.00 in0.0 mm
01:00 PM 42.8°F6.0°C 27.7°F-2.4°C 55% 1.8 mph ESE2.9 kmh ESE 1.8 mph2.9 kmh 30.39 in1029.1 mb 0.00 in0.0 mm 0.00 in/hr0.0 mm/hr 0.00 in0.0 mm
01:30 PM 43.4°F6.3°C 27.8°F-2.3°C 54% 1.8 mph E2.9 kmh E 1.8 mph2.9 kmh 30.38 in1028.8 mb 0.00 in0.0 mm 0.00 in/hr0.0 mm/hr 0.00 in0.0 mm
02:00 PM 43.0°F6.1°C 27.5°F-2.5°C 54% 1.8 mph SSE2.9 kmh SSE 1.8 mph2.9 kmh 30.36 in1028.1 mb 0.00 in0.0 mm 0.00 in/hr0.0 mm/hr 0.00 in0.0 mm
02:30 PM 43.2°F6.2°C 27.6°F-2.4°C 54% 1.1 mph S1.8 kmh S 1.1 mph1.8 kmh 30.35 in1027.8 mb 0.00 in0.0 mm 0.00 in/hr0.0 mm/hr 0.00 in0.0 mm
03:00 PM 45.0°F7.2°C 28.9°F-1.7°C 53% 2.2 mph SSW3.5 kmh SSW 2.2 mph3.5 kmh 30.34 in1027.4 mb 0.00 in0.0 mm 0.00 in/hr0.0 mm/hr 0.00 in0.0 mm
03:30 PM 46.3°F7.9°C 29.1°F-1.6°C 51% 2.5 mph SSW4.0 kmh SSW 2.5 mph4.0 kmh 30.33 in1027.1 mb 0.00 in0.0 mm 0.00 in/hr0.0 mm/hr 0.00 in0.0 mm
04:00 PM 45.4°F7.4°C 28.3°F-2.1°C 51% 6.3 mph ESE10.1 kmh ESE 6.3 mph10.1 kmh 30.32 in1026.8 mb 0.00 in0.0 mm 0.00 in/hr0.0 mm/hr 0.00 in0.0 mm
04:30 PM 46.4°F8.0°C 28.8°F-1.8°C 50% 1.3 mph SE2.1 kmh SE 1.3 mph2.1 kmh 30.31 in1026.4 mb 0.00 in0.0 mm 0.00 in/hr0.0 mm/hr 0.00 in0.0 mm
05:00 PM 43.4°F6.3°C 26.9°F-2.8°C 52% 2.9 mph SSE4.7 kmh SSE 2.9 mph4.7 kmh 30.31 in1026.4 mb 0.00 in0.0 mm 0.00 in/hr0.0 mm/hr 0.00 in0.0 mm
05:30 PM 42.1°F5.6°C 26.2°F-3.2°C 53% 0.7 mph SSE1.1 kmh SSE 0.7 mph1.1 kmh 30.30 in1026.1 mb 0.00 in0.0 mm 0.00 in/hr0.0 mm/hr 0.00 in0.0 mm
06:00 PM 40.1°F4.5°C 25.1°F-3.8°C 55% Calm Calm -- 30.28 in1025.4 mb 0.00 in0.0 mm 0.00 in/hr0.0 mm/hr 0.00 in0.0 mm
06:30 PM 38.5°F3.6°C 24.9°F-3.9°C 58% Calm Calm -- 30.27 in1025.1 mb 0.00 in0.0 mm 0.00 in/hr0.0 mm/hr 0.00 in0.0 mm
07:00 PM 37.3°F2.9°C 24.7°F-4.1°C 60% Calm Calm -- 30.26 in1024.7 mb 0.00 in0.0 mm 0.00 in/hr0.0 mm/hr 0.00 in0.0 mm
07:30 PM 36.4°F2.4°C 24.2°F-4.3°C 61% Calm Calm -- 30.26 in1024.7 mb 0.00 in0.0 mm 0.00 in/hr0.0 mm/hr 0.00 in0.0 mm
08:00 PM 35.6°F2.0°C 24.3°F-4.3°C 63% Calm Calm -- 30.25 in1024.4 mb 0.00 in0.0 mm 0.00 in/hr0.0 mm/hr 0.00 in0.0 mm
08:30 PM 35.5°F1.9°C 25.6°F-3.6°C 67% 0.4 mph W0.6 kmh W 0.4 mph0.6 kmh 30.25 in1024.4 mb 0.00 in0.0 mm 0.00 in/hr0.0 mm/hr 0.00 in0.0 mm
09:00 PM 35.5°F1.9°C 25.9°F-3.4°C 68% Calm Calm -- 30.25 in1024.4 mb 0.00 in0.0 mm 0.00 in/hr0.0 mm/hr 0.00 in0.0 mm
09:30 PM 36.4°F2.4°C 26.5°F-3.1°C 67% 1.1 mph W1.8 kmh W 1.1 mph1.8 kmh 30.23 in1023.7 mb 0.00 in0.0 mm 0.00 in/hr0.0 mm/hr 0.00 in0.0 mm
10:03 PM 36.9°F2.7°C 27.0°F-2.8°C 67% 2.4 mph SW3.9 kmh SW 3.8 mph6.1 kmh 30.22 in1023.4 mb 0.00 in0.0 mm 0.00 in/hr0.0 mm/hr 0.00 in0.0 mm
10:33 PM 37.1°F2.8°C 26.4°F-3.1°C 65% 1.6 mph WSW2.6 kmh WSW 1.6 mph2.6 kmh 30.21 in1023.0 mb 0.00 in0.0 mm 0.00 in/hr0.0 mm/hr 0.00 in0.0 mm
11:00 PM 36.7°F2.6°C 25.3°F-3.7°C 63% 1.3 mph NNW2.1 kmh NNW 1.3 mph2.1 kmh 30.20 in1022.7 mb 0.00 in0.0 mm 0.00 in/hr0.0 mm/hr 0.00 in0.0 mm
11:30 PM 36.2°F2.3°C 25.2°F-3.8°C 64% 1.1 mph WNW1.8 kmh WNW 1.1 mph1.8 kmh 30.20 in1022.7 mb 0.00 in0.0 mm 0.00 in/hr0.0 mm/hr 0.00 in0.0 mm